createdAt,value
2018-03-03T00:01:28.671Z,0
2018-03-03T00:06:28.798Z,0
2018-03-03T00:11:29.038Z,0
2018-03-03T00:16:29.228Z,0
2018-03-03T00:21:28.434Z,0
2018-03-03T00:26:28.589Z,0
2018-03-03T00:31:28.699Z,0
2018-03-03T00:36:28.844Z,0
2018-03-03T00:41:28.987Z,0
2018-03-03T00:46:29.102Z,0
2018-03-03T00:51:28.545Z,0
2018-03-03T00:56:28.619Z,0
2018-03-03T01:01:28.804Z,0
2018-03-03T01:06:29.165Z,0
2018-03-03T01:11:28.418Z,0
2018-03-03T01:16:28.637Z,0
2018-03-03T01:21:28.801Z,0
2018-03-03T01:26:28.931Z,0
2018-03-03T01:31:29.072Z,0
2018-03-03T01:36:29.164Z,0
2018-03-03T01:41:29.280Z,0
2018-03-03T01:46:28.385Z,0
2018-03-03T01:51:28.529Z,0
2018-03-03T01:56:28.621Z,0
2018-03-03T02:01:28.793Z,0
2018-03-03T02:06:28.928Z,0
2018-03-03T02:11:29.049Z,0
2018-03-03T02:16:29.157Z,0
2018-03-03T02:21:29.328Z,0
2018-03-03T02:26:28.568Z,0
2018-03-03T02:31:28.741Z,0
2018-03-03T02:36:28.902Z,0
2018-03-03T02:41:29.177Z,0
2018-03-03T02:46:29.319Z,0
2018-03-03T02:51:28.547Z,0
2018-03-03T02:56:28.642Z,0
2018-03-03T03:01:28.907Z,0
2018-03-03T03:06:29.073Z,0
2018-03-03T03:11:29.280Z,0
2018-03-03T03:16:29.434Z,0
2018-03-03T03:21:28.642Z,0
2018-03-03T03:26:28.785Z,0
2018-03-03T03:31:29.000Z,0
2018-03-03T03:36:29.132Z,0
2018-03-03T03:41:29.249Z,0
2018-03-03T03:46:29.431Z,0
2018-03-03T03:51:28.772Z,0
2018-03-03T03:56:29.114Z,0
2018-03-03T04:01:29.465Z,0
2018-03-03T04:06:28.583Z,0
2018-03-03T04:11:28.768Z,0
2018-03-03T04:16:29.030Z,0
2018-03-03T04:21:29.160Z,0
2018-03-03T04:26:29.294Z,0
2018-03-03T04:31:29.615Z,0
2018-03-03T04:36:28.855Z,0
2018-03-03T04:41:29.014Z,0
2018-03-03T04:46:29.178Z,0
2018-03-03T04:51:29.350Z,0
2018-03-03T04:56:29.510Z,0
2018-03-03T05:01:28.716Z,0
2018-03-03T05:06:28.887Z,0
2018-03-03T05:11:29.072Z,0
2018-03-03T05:16:29.370Z,0
2018-03-03T05:21:29.548Z,0
2018-03-03T05:26:28.873Z,0
2018-03-03T05:31:29.554Z,0
2018-03-03T05:36:28.922Z,0
2018-03-03T05:41:29.332Z,0
2018-03-03T05:46:29.647Z,0
2018-03-03T05:51:28.951Z,0
2018-03-03T05:56:29.145Z,0
2018-03-03T06:01:29.448Z,0
2018-03-03T06:06:28.648Z,0
2018-03-03T06:11:28.868Z,0
2018-03-03T06:16:29.110Z,6.5
2018-03-03T06:21:29.237Z,6.5
2018-03-03T06:26:29.426Z,11.3
2018-03-03T06:31:29.661Z,11.3
2018-03-03T06:36:28.806Z,16
2018-03-03T06:41:28.972Z,16
2018-03-03T06:46:29.169Z,22.3
2018-03-03T06:51:29.319Z,22.3
2018-03-03T06:56:29.454Z,27.3
2018-03-03T07:01:28.968Z,27.3
2018-03-03T07:06:29.150Z,32
2018-03-03T07:11:29.282Z,32
2018-03-03T07:16:29.505Z,36.3
2018-03-03T07:21:29.698Z,36.3
2018-03-03T07:26:28.937Z,42.7
2018-03-03T07:31:29.080Z,42.7
2018-03-03T07:36:29.267Z,44.5
2018-03-03T07:41:29.469Z,44.5
2018-03-03T07:46:29.662Z,49
2018-03-03T07:51:28.856Z,49
2018-03-03T07:56:29.023Z,157.3
2018-03-03T08:01:29.311Z,157.3
2018-03-03T08:06:29.460Z,183.2
2018-03-03T08:11:29.617Z,183.2
2018-03-03T08:16:29.742Z,212
2018-03-03T08:21:28.922Z,212
2018-03-03T08:26:29.073Z,236.3
2018-03-03T08:31:29.200Z,236.3
2018-03-03T08:36:29.335Z,259
2018-03-03T08:41:29.461Z,259
2018-03-03T08:46:29.581Z,279.3
2018-03-03T08:51:29.740Z,279.3
2018-03-03T08:56:28.960Z,297
2018-03-03T09:01:29.131Z,297
2018-03-03T09:06:29.309Z,313.3
2018-03-03T09:11:29.425Z,313.3
2018-03-03T09:16:29.646Z,330.7
2018-03-03T09:21:29.756Z,330.7
2018-03-03T09:26:28.920Z,346
2018-03-03T09:31:29.135Z,346
2018-03-03T09:36:29.252Z,362
2018-03-03T09:41:29.380Z,362
2018-03-03T09:46:29.568Z,374.7
2018-03-03T09:51:29.650Z,374.7
2018-03-03T09:56:29.842Z,389.8
2018-03-03T10:01:29.087Z,389.8
2018-03-03T10:06:29.163Z,401
2018-03-03T10:11:29.292Z,401
2018-03-03T10:16:29.576Z,410
2018-03-03T10:21:29.704Z,410
2018-03-03T10:26:28.909Z,422.3
2018-03-03T10:31:29.096Z,422.3
2018-03-03T10:36:29.178Z,431.3
2018-03-03T10:41:29.360Z,431.3
2018-03-03T10:46:29.507Z,439
2018-03-03T10:51:29.645Z,439
2018-03-03T10:56:29.807Z,446
2018-03-03T11:01:30.033Z,446
2018-03-03T11:06:29.195Z,450
2018-03-03T11:11:29.342Z,450
2018-03-03T11:16:29.502Z,454.2
2018-03-03T11:21:29.737Z,454.2
2018-03-03T11:26:29.942Z,456.3
2018-03-03T11:31:29.073Z,456.3
2018-03-03T11:36:29.212Z,457
2018-03-03T11:41:29.478Z,457
2018-03-03T11:46:29.660Z,457.7
2018-03-03T11:51:29.809Z,457.7
2018-03-03T11:56:29.993Z,459.7
2018-03-03T12:01:29.250Z,459.7
2018-03-03T12:06:29.368Z,458.5
2018-03-03T12:11:29.480Z,458.5
2018-03-03T12:16:29.679Z,453.7
2018-03-03T12:21:29.872Z,453.7
2018-03-03T12:26:29.990Z,451.3
2018-03-03T12:31:29.164Z,451.3
2018-03-03T12:36:29.331Z,443.8
2018-03-03T12:41:29.514Z,443.8
2018-03-03T12:46:29.729Z,436
2018-03-03T12:51:29.913Z,436
2018-03-03T12:56:30.012Z,430.8
2018-03-03T13:01:29.196Z,430.8
2018-03-03T13:06:29.450Z,419
2018-03-03T13:11:29.879Z,419
2018-03-03T13:16:30.026Z,407.3
2018-03-03T13:21:29.156Z,407.3
2018-03-03T13:26:29.292Z,392.7
2018-03-03T13:31:29.561Z,392.7
2018-03-03T13:36:29.745Z,378.7
2018-03-03T13:41:29.816Z,378.7
2018-03-03T13:46:30.075Z,366.7
2018-03-03T13:51:29.243Z,366.7
2018-03-03T13:56:29.377Z,351.8
2018-03-03T14:01:29.596Z,351.8
2018-03-03T14:06:29.813Z,335
2018-03-03T14:11:30.077Z,335
2018-03-03T14:16:29.279Z,320
2018-03-03T14:21:29.392Z,320
2018-03-03T14:26:29.580Z,301.7
2018-03-03T14:31:29.786Z,301.7
2018-03-03T14:36:29.932Z,281.7
2018-03-03T14:41:30.125Z,281.7
2018-03-03T14:46:29.322Z,260
2018-03-03T14:51:29.548Z,260
2018-03-03T14:56:29.702Z,232.5
2018-03-03T15:01:29.917Z,232.5
2018-03-03T15:06:30.041Z,53.2
2018-03-03T15:11:30.276Z,53.2
2018-03-03T15:16:29.419Z,51
2018-03-03T15:21:29.528Z,51
2018-03-03T15:26:29.696Z,47.5
2018-03-03T15:31:29.959Z,47.5
2018-03-03T15:36:30.065Z,44
2018-03-03T15:41:30.196Z,44
2018-03-03T15:46:29.425Z,39.7
2018-03-03T15:51:29.556Z,39.7
2018-03-03T15:56:29.707Z,36
2018-03-03T16:01:29.974Z,36
2018-03-03T16:06:30.106Z,33
2018-03-03T16:11:30.194Z,33
2018-03-03T16:16:29.503Z,26
2018-03-03T16:21:29.649Z,26
2018-03-03T16:26:29.896Z,21.7
2018-03-03T16:31:30.124Z,21.7
2018-03-03T16:36:30.240Z,18
2018-03-03T16:41:29.470Z,18
2018-03-03T16:46:29.709Z,12
2018-03-03T16:51:29.840Z,12
2018-03-03T16:56:30.073Z,7.5
2018-03-03T17:01:30.418Z,7.5
2018-03-03T17:06:29.669Z,0
2018-03-03T17:11:29.885Z,0
2018-03-03T17:16:30.085Z,0
2018-03-03T17:21:30.447Z,0
2018-03-03T17:26:29.654Z,0
2018-03-03T17:31:29.873Z,0
2018-03-03T17:36:30.030Z,0
2018-03-03T17:41:30.311Z,0
2018-03-03T17:46:29.563Z,0
2018-03-03T17:51:29.839Z,0
2018-03-03T17:56:30.063Z,0
2018-03-03T18:01:30.313Z,0
2018-03-03T18:06:29.598Z,0
2018-03-03T18:11:29.751Z,0
2018-03-03T18:16:30.014Z,0
2018-03-03T18:21:30.258Z,0
2018-03-03T18:26:29.484Z,0
2018-03-03T18:31:29.749Z,0
2018-03-03T18:36:29.947Z,0
2018-03-03T18:41:30.121Z,0
2018-03-03T18:46:30.385Z,0
2018-03-03T18:51:29.572Z,0
2018-03-03T18:56:29.749Z,0
2018-03-03T19:01:30.097Z,0
2018-03-03T19:06:30.311Z,0
2018-03-03T19:11:29.570Z,0
2018-03-03T19:16:29.828Z,0
2018-03-03T19:21:30.143Z,0
2018-03-03T19:26:30.359Z,0
2018-03-03T19:31:29.655Z,0
2018-03-03T19:36:29.807Z,0
2018-03-03T19:41:30.045Z,0
2018-03-03T19:46:30.334Z,0
2018-03-03T19:51:30.545Z,0
2018-03-03T19:56:29.788Z,0
2018-03-03T20:01:30.014Z,0
2018-03-03T20:06:30.186Z,0
2018-03-03T20:11:30.406Z,0
2018-03-03T20:16:29.680Z,0
2018-03-03T20:21:29.891Z,0
2018-03-03T20:26:30.095Z,0
2018-03-03T20:36:30.028Z,0
2018-03-03T20:41:30.228Z,0
2018-03-03T20:46:30.404Z,0
2018-03-03T20:51:30.718Z,0
2018-03-03T20:56:30.057Z,0
2018-03-03T21:01:30.279Z,0
2018-03-03T21:06:30.493Z,0
2018-03-03T21:11:29.762Z,0
2018-03-03T21:16:30.024Z,0
2018-03-03T21:26:30.279Z,0
2018-03-03T21:31:30.532Z,0
2018-03-03T21:36:29.849Z,0
2018-03-03T21:41:30.013Z,0
2018-03-03T21:46:30.264Z,0
2018-03-03T21:51:30.482Z,0
2018-03-03T21:56:30.673Z,0
2018-03-03T22:01:30.005Z,0
2018-03-03T22:06:30.192Z,0
2018-03-03T22:11:30.388Z,0
2018-03-03T22:16:30.557Z,0
2018-03-03T22:21:29.774Z,0
2018-03-03T22:26:29.965Z,0
2018-03-03T22:31:30.125Z,0
2018-03-03T22:36:30.275Z,0
2018-03-03T22:41:30.492Z,0
2018-03-03T22:46:30.661Z,0
2018-03-03T22:51:29.850Z,0
2018-03-03T22:56:29.917Z,0
2018-03-03T23:01:30.532Z,0
2018-03-03T23:06:30.741Z,0
2018-03-03T23:11:30.040Z,0
2018-03-03T23:16:30.179Z,0
2018-03-03T23:21:30.384Z,0
2018-03-03T23:26:30.608Z,0
2018-03-03T23:31:30.758Z,0
2018-03-03T23:36:29.944Z,0
2018-03-03T23:41:30.109Z,0
2018-03-03T23:46:30.330Z,0
2018-03-03T23:51:30.506Z,0
2018-03-03T23:56:30.664Z,0
